Claunch, New Mexico
Current Conditions -  °F | °C
As of 5:15 AM on Thursday 18 Dec 2014 (Local Time) from KONM Reporting Station
Overcast Overcast  
Wind Chill: 32°   Ceiling: 7500
Heat Index: 32°   Visibility: 10mi
Dew Point: 29°   Wind: 3mph
Humidity: 90%   Direction: 240°WSW
Pressure: 30.13"   Gusts: NA
Location:  34.14°N, 106°W
Report Text: KONM 181215Z AUTO 24003KT 10SM OVC075 00/M02 A3013 RMK AO2 T10021017
Loading
Personal Weather Stations






























Interactive Weather Map New forecast layout! Learn more

10-Day Weather Forecast

Advertisements
Track Severe Weather on mobile